sensor_id;sensor_type;location;lat;lon;timestamp;pressure;altitude;pressure_sealevel;temperature;humidity
78745;BME280;68064;53.100;8.824;2023-07-09T00:00:35;101963.69;;;22.00;46.88
78745;BME280;68064;53.100;8.824;2023-07-09T00:01:38;101958.44;;;21.97;47.11
78745;BME280;68064;53.100;8.824;2023-07-09T00:02:39;101959.28;;;21.95;47.20
78745;BME280;68064;53.100;8.824;2023-07-09T00:03:40;101964.44;;;21.92;47.19
78745;BME280;68064;53.100;8.824;2023-07-09T00:04:42;101968.78;;;21.91;47.12
78745;BME280;68064;53.100;8.824;2023-07-09T00:05:45;101967.81;;;21.88;47.25
78745;BME280;68064;53.100;8.824;2023-07-09T00:06:47;101967.78;;;21.85;47.26
78745;BME280;68064;53.100;8.824;2023-07-09T00:07:48;101972.91;;;21.80;47.15
78745;BME280;68064;53.100;8.824;2023-07-09T00:08:50;101967.69;;;21.79;47.59
78745;BME280;68064;53.100;8.824;2023-07-09T00:09:53;101966.81;;;21.80;47.47
78745;BME280;68064;53.100;8.824;2023-07-09T00:10:55;101971.09;;;21.75;47.45
78745;BME280;68064;53.100;8.824;2023-07-09T00:11:57;101974.53;;;21.72;47.37
78745;BME280;68064;53.100;8.824;2023-07-09T00:12:58;101970.13;;;21.68;47.48
78745;BME280;68064;53.100;8.824;2023-07-09T00:13:59;101973.56;;;21.67;47.77
78745;BME280;68064;53.100;8.824;2023-07-09T00:15:00;101969.25;;;21.66;47.55
78745;BME280;68064;53.100;8.824;2023-07-09T00:16:10;101963.09;;;21.62;47.86
78745;BME280;68064;53.100;8.824;2023-07-09T00:17:18;101966.53;;;21.60;47.74
78745;BME280;68064;53.100;8.824;2023-07-09T00:18:21;101974.28;;;21.57;47.85
78745;BME280;68064;53.100;8.824;2023-07-09T00:19:22;101973.38;;;21.53;47.77
78745;BME280;68064;53.100;8.824;2023-07-09T00:20:23;101972.44;;;21.51;47.89
78745;BME280;68064;53.100;8.824;2023-07-09T00:21:24;101976.78;;;21.51;47.97
78745;BME280;68064;53.100;8.824;2023-07-09T00:22:25;101971.53;;;21.48;48.11
78745;BME280;68064;53.100;8.824;2023-07-09T00:23:26;101971.47;;;21.45;48.17
78745;BME280;68064;53.100;8.824;2023-07-09T00:24:28;101972.31;;;21.42;48.12
78745;BME280;68064;53.100;8.824;2023-07-09T00:25:30;101971.41;;;21.40;48.02
78745;BME280;68064;53.100;8.824;2023-07-09T00:26:31;101967.88;;;21.38;48.25
78745;BME280;68064;53.100;8.824;2023-07-09T00:27:32;101974.78;;;21.35;48.20
78745;BME280;68064;53.100;8.824;2023-07-09T00:28:33;101973.00;;;21.32;48.25
78745;BME280;68064;53.100;8.824;2023-07-09T00:29:34;101972.06;;;21.29;48.42
78745;BME280;68064;53.100;8.824;2023-07-09T00:30:35;101977.22;;;21.26;48.23
78745;BME280;68064;53.100;8.824;2023-07-09T00:31:36;101973.72;;;21.25;48.45
78745;BME280;68064;53.100;8.824;2023-07-09T00:32:37;101975.44;;;21.22;48.42
78745;BME280;68064;53.100;8.824;2023-07-09T00:33:38;101976.28;;;21.21;48.56
78745;BME280;68064;53.100;8.824;2023-07-09T00:34:39;101969.28;;;21.18;48.69
78745;BME280;68064;53.100;8.824;2023-07-09T00:35:41;101975.34;;;21.17;48.63
78745;BME280;68064;53.100;8.824;2023-07-09T00:36:42;101977.00;;;21.14;48.84
78745;BME280;68064;53.100;8.824;2023-07-09T00:37:45;101978.72;;;21.12;48.73
78745;BME280;68064;53.100;8.824;2023-07-09T00:38:46;101976.88;;;21.07;48.81
78745;BME280;68064;53.100;8.824;2023-07-09T00:39:48;101977.69;;;21.05;49.02
78745;BME280;68064;53.100;8.824;2023-07-09T00:41:00;101975.94;;;21.04;49.22
78745;BME280;68064;53.100;8.824;2023-07-09T00:42:02;101977.63;;;21.02;49.10
78745;BME280;68064;53.100;8.824;2023-07-09T00:43:13;101976.69;;;20.98;49.10
78745;BME280;68064;53.100;8.824;2023-07-09T00:44:29;101983.59;;;20.96;49.26
78745;BME280;68064;53.100;8.824;2023-07-09T00:45:31;101983.56;;;20.95;49.27
78745;BME280;68064;53.100;8.824;2023-07-09T00:48:25;101981.75;;;20.89;49.33
78745;BME280;68064;53.100;8.824;2023-07-09T00:49:27;101979.97;;;20.88;49.53
78745;BME280;68064;53.100;8.824;2023-07-09T00:50:34;101973.00;;;20.86;49.43
78745;BME280;68064;53.100;8.824;2023-07-09T00:51:38;101975.53;;;20.83;49.61
78745;BME280;68064;53.100;8.824;2023-07-09T00:52:48;101976.38;;;20.80;49.61
78745;BME280;68064;53.100;8.824;2023-07-09T00:53:54;101978.88;;;20.77;49.59
78745;BME280;68064;53.100;8.824;2023-07-09T00:54:59;101979.69;;;20.75;49.75
78745;BME280;68064;53.100;8.824;2023-07-09T00:56:06;101977.03;;;20.72;49.82
78745;BME280;68064;53.100;8.824;2023-07-09T00:57:11;101981.28;;;20.68;49.89
78745;BME280;68064;53.100;8.824;2023-07-09T00:58:14;101978.63;;;20.65;49.89
78745;BME280;68064;53.100;8.824;2023-07-09T00:59:18;101981.22;;;20.64;50.03
78745;BME280;68064;53.100;8.824;2023-07-09T01:00:23;101979.44;;;20.61;50.07
78745;BME280;68064;53.100;8.824;2023-07-09T01:01:26;101979.38;;;20.58;49.85
78745;BME280;68064;53.100;8.824;2023-07-09T01:02:27;101975.91;;;20.57;50.04
78745;BME280;68064;53.100;8.824;2023-07-09T01:03:29;101972.38;;;20.55;50.01
78745;BME280;68064;53.100;8.824;2023-07-09T01:04:32;101975.84;;;20.54;49.97
78745;BME280;68064;53.100;8.824;2023-07-09T01:05:34;101979.28;;;20.53;50.29
78745;BME280;68064;53.100;8.824;2023-07-09T01:06:38;101975.72;;;20.50;50.20
78745;BME280;68064;53.100;8.824;2023-07-09T01:07:42;101973.13;;;20.48;50.26
78745;BME280;68064;53.100;8.824;2023-07-09T01:08:43;101974.78;;;20.46;50.40
78745;BME280;68064;53.100;8.824;2023-07-09T01:09:45;101966.97;;;20.45;50.37
78745;BME280;68064;53.100;8.824;2023-07-09T01:10:47;101961.72;;;20.42;50.39
78745;BME280;68064;53.100;8.824;2023-07-09T01:11:49;101968.56;;;20.40;50.40
78745;BME280;68064;53.100;8.824;2023-07-09T01:12:50;101970.28;;;20.38;50.71
78745;BME280;68064;53.100;8.824;2023-07-09T01:13:56;101967.63;;;20.36;50.49
78745;BME280;68064;53.100;8.824;2023-07-09T01:14:58;101966.69;;;20.33;50.47
78745;BME280;68064;53.100;8.824;2023-07-09T01:16:00;101963.19;;;20.31;50.75
78745;BME280;68064;53.100;8.824;2023-07-09T01:17:03;101966.59;;;20.28;50.81
78745;BME280;68064;53.100;8.824;2023-07-09T01:18:06;101962.25;;;20.27;50.93
78745;BME280;68064;53.100;8.824;2023-07-09T01:19:07;101963.06;;;20.26;50.68
78745;BME280;68064;53.100;8.824;2023-07-09T01:20:08;101957.81;;;20.25;50.91
78745;BME280;68064;53.100;8.824;2023-07-09T01:21:10;101956.06;;;20.24;50.73
78745;BME280;68064;53.100;8.824;2023-07-09T01:22:13;101960.38;;;20.22;50.75
78745;BME280;68064;53.100;8.824;2023-07-09T01:23:14;101959.41;;;20.18;50.93
78745;BME280;68064;53.100;8.824;2023-07-09T01:24:52;101956.69;;;20.14;51.18
78745;BME280;68064;53.100;8.824;2023-07-09T01:25:53;101967.09;;;20.12;51.16
78745;BME280;68064;53.100;8.824;2023-07-09T01:26:54;101963.53;;;20.08;51.10
78745;BME280;68064;53.100;8.824;2023-07-09T01:27:55;101960.03;;;20.06;51.21
78745;BME280;68064;53.100;8.824;2023-07-09T01:28:57;101960.88;;;20.05;51.12
78745;BME280;68064;53.100;8.824;2023-07-09T01:29:58;101959.09;;;20.04;51.20
78745;BME280;68064;53.100;8.824;2023-07-09T01:30:59;101953.84;;;20.01;51.17
78745;BME280;68064;53.100;8.824;2023-07-09T01:32:00;101965.94;;;20.01;51.41
78745;BME280;68064;53.100;8.824;2023-07-09T01:33:02;101962.41;;;19.97;51.32
78745;BME280;68064;53.100;8.824;2023-07-09T01:34:04;101958.00;;;19.95;51.44
78745;BME280;68064;53.100;8.824;2023-07-09T01:35:05;101958.84;;;19.92;51.35
78745;BME280;68064;53.100;8.824;2023-07-09T01:36:06;101964.00;;;19.91;51.32
78745;BME280;68064;53.100;8.824;2023-07-09T01:37:09;101961.38;;;19.89;51.36
78745;BME280;68064;53.100;8.824;2023-07-09T01:38:10;101956.13;;;19.88;51.46
78745;BME280;68064;53.100;8.824;2023-07-09T01:39:11;101960.41;;;19.86;51.40
78745;BME280;68064;53.100;8.824;2023-07-09T01:40:15;101966.41;;;19.83;51.30
78745;BME280;68064;53.100;8.824;2023-07-09T01:41:17;101959.38;;;19.79;51.56
78745;BME280;68064;53.100;8.824;2023-07-09T01:42:20;101968.84;;;19.76;51.46
78745;BME280;68064;53.100;8.824;2023-07-09T01:43:22;101961.84;;;19.73;51.40
78745;BME280;68064;53.100;8.824;2023-07-09T01:44:23;101972.22;;;19.72;51.58
78745;BME280;68064;53.100;8.824;2023-07-09T01:45:24;101966.94;;;19.69;51.88
78745;BME280;68064;53.100;8.824;2023-07-09T01:46:25;101963.41;;;19.67;51.91
78745;BME280;68064;53.100;8.824;2023-07-09T01:47:26;101966.03;;;19.67;51.92
78745;BME280;68064;53.100;8.824;2023-07-09T01:48:27;101971.19;;;19.65;51.77
78745;BME280;68064;53.100;8.824;2023-07-09T01:49:28;101966.78;;;19.63;52.02
78745;BME280;68064;53.100;8.824;2023-07-09T01:50:29;101965.94;;;19.62;52.04
78745;BME280;68064;53.100;8.824;2023-07-09T01:51:30;101967.66;;;19.62;52.14
78745;BME280;68064;53.100;8.824;2023-07-09T01:52:33;101968.47;;;19.61;51.95
78745;BME280;68064;53.100;8.824;2023-07-09T01:53:35;101971.88;;;19.58;52.25
78745;BME280;68064;53.100;8.824;2023-07-09T01:54:37;101972.72;;;19.57;52.18
78745;BME280;68064;53.100;8.824;2023-07-09T01:55:38;101969.22;;;19.57;52.32
78745;BME280;68064;53.100;8.824;2023-07-09T01:56:39;101970.03;;;19.54;51.95
78745;BME280;68064;53.100;8.824;2023-07-09T01:57:40;101962.19;;;19.51;52.21
78745;BME280;68064;53.100;8.824;2023-07-09T01:58:41;101971.69;;;19.50;52.19
78745;BME280;68064;53.100;8.824;2023-07-09T01:59:42;101974.22;;;19.47;52.22
78745;BME280;68064;53.100;8.824;2023-07-09T02:00:44;101970.72;;;19.47;52.45
78745;BME280;68064;53.100;8.824;2023-07-09T02:01:45;101975.00;;;19.45;52.40
78745;BME280;68064;53.100;8.824;2023-07-09T02:02:46;101968.06;;;19.44;52.41
78745;BME280;68064;53.100;8.824;2023-07-09T02:03:47;101969.75;;;19.43;52.49
78745;BME280;68064;53.100;8.824;2023-07-09T02:04:49;101974.88;;;19.40;52.32
78745;BME280;68064;53.100;8.824;2023-07-09T02:05:52;101967.00;;;19.37;52.41
78745;BME280;68064;53.100;8.824;2023-07-09T02:06:53;101971.28;;;19.37;52.64
78745;BME280;68064;53.100;8.824;2023-07-09T02:07:56;101974.69;;;19.34;52.47
78745;BME280;68064;53.100;8.824;2023-07-09T02:08:57;101973.78;;;19.32;52.43
78745;BME280;68064;53.100;8.824;2023-07-09T02:09:58;101972.03;;;19.31;52.36
78745;BME280;68064;53.100;8.824;2023-07-09T02:10:59;101972.88;;;19.30;52.39
78745;BME280;68064;53.100;8.824;2023-07-09T02:12:00;101970.25;;;19.29;52.56
78745;BME280;68064;53.100;8.824;2023-07-09T02:13:01;101972.78;;;19.27;52.56
78745;BME280;68064;53.100;8.824;2023-07-09T02:14:02;101973.66;;;19.26;52.58
78745;BME280;68064;53.100;8.824;2023-07-09T02:15:05;101976.16;;;19.23;52.68
78745;BME280;68064;53.100;8.824;2023-07-09T02:16:06;101965.72;;;19.22;52.47
78745;BME280;68064;53.100;8.824;2023-07-09T02:17:07;101970.00;;;19.20;52.39
78745;BME280;68064;53.100;8.824;2023-07-09T02:18:08;101972.53;;;19.18;52.61
78745;BME280;68064;53.100;8.824;2023-07-09T02:19:09;101971.66;;;19.18;52.54
78745;BME280;68064;53.100;8.824;2023-07-09T02:20:11;101969.03;;;19.16;52.41
78745;BME280;68064;53.100;8.824;2023-07-09T02:21:12;101970.72;;;19.14;52.63
78745;BME280;68064;53.100;8.824;2023-07-09T02:22:14;101970.72;;;19.14;52.85
78745;BME280;68064;53.100;8.824;2023-07-09T02:23:16;101972.38;;;19.11;52.58
78745;BME280;68064;53.100;8.824;2023-07-09T02:24:17;101968.84;;;19.09;52.83
78745;BME280;68064;53.100;8.824;2023-07-09T02:25:18;101970.59;;;19.10;52.79
78745;BME280;68064;53.100;8.824;2023-07-09T02:26:19;101961.03;;;19.07;52.95
78745;BME280;68064;53.100;8.824;2023-07-09T02:27:20;101972.22;;;19.06;52.63
78745;BME280;68064;53.100;8.824;2023-07-09T02:28:22;101971.31;;;19.04;52.89
78745;BME280;68064;53.100;8.824;2023-07-09T02:29:24;101970.38;;;19.00;52.84
78745;BME280;68064;53.100;8.824;2023-07-09T02:30:25;101970.31;;;18.99;52.99
78745;BME280;68064;53.100;8.824;2023-07-09T02:31:26;101978.06;;;18.97;52.71
78745;BME280;68064;53.100;8.824;2023-07-09T02:32:27;101964.13;;;18.94;52.82
78745;BME280;68064;53.100;8.824;2023-07-09T02:33:28;101965.84;;;18.93;52.90
78745;BME280;68064;53.100;8.824;2023-07-09T02:34:30;101965.81;;;18.92;52.99
78745;BME280;68064;53.100;8.824;2023-07-09T02:35:31;101966.63;;;18.91;52.90
78745;BME280;68064;53.100;8.824;2023-07-09T02:36:32;101960.53;;;18.89;53.02
78745;BME280;68064;53.100;8.824;2023-07-09T02:37:33;101957.00;;;18.87;53.04
78745;BME280;68064;53.100;8.824;2023-07-09T02:38:35;101957.00;;;18.87;53.14
78745;BME280;68064;53.100;8.824;2023-07-09T02:39:37;101954.38;;;18.85;53.22
78745;BME280;68064;53.100;8.824;2023-07-09T02:40:38;101955.16;;;18.83;53.16
78745;BME280;68064;53.100;8.824;2023-07-09T02:41:40;101954.31;;;18.82;53.22
78745;BME280;68064;53.100;8.824;2023-07-09T02:42:41;101955.06;;;18.78;53.07
78745;BME280;68064;53.100;8.824;2023-07-09T02:43:42;101959.34;;;18.78;53.31
78745;BME280;68064;53.100;8.824;2023-07-09T02:44:44;101954.09;;;18.76;53.21
78745;BME280;68064;53.100;8.824;2023-07-09T02:45:45;101957.56;;;18.75;53.40
78745;BME280;68064;53.100;8.824;2023-07-09T02:46:46;101953.19;;;18.73;53.28
78745;BME280;68064;53.100;8.824;2023-07-09T02:47:47;101955.72;;;18.71;53.31
78745;BME280;68064;53.100;8.824;2023-07-09T02:48:48;101954.00;;;18.72;53.28
78745;BME280;68064;53.100;8.824;2023-07-09T02:49:49;101959.13;;;18.70;53.38
78745;BME280;68064;53.100;8.824;2023-07-09T02:50:50;101954.81;;;18.69;53.38
78745;BME280;68064;53.100;8.824;2023-07-09T02:51:51;101950.38;;;18.67;53.33
78745;BME280;68064;53.100;8.824;2023-07-09T02:52:55;101955.53;;;18.65;53.42
78745;BME280;68064;53.100;8.824;2023-07-09T02:53:59;101957.22;;;18.63;53.34
78745;BME280;68064;53.100;8.824;2023-07-09T02:55:01;101964.13;;;18.63;53.72
78745;BME280;68064;53.100;8.824;2023-07-09T02:56:02;101958.84;;;18.60;53.35
78745;BME280;68064;53.100;8.824;2023-07-09T02:57:03;101955.38;;;18.59;53.39
78745;BME280;68064;53.100;8.824;2023-07-09T02:58:04;101957.91;;;18.58;53.27
78745;BME280;68064;53.100;8.824;2023-07-09T02:59:05;101955.28;;;18.56;53.46
78745;BME280;68064;53.100;8.824;2023-07-09T03:00:07;101959.50;;;18.53;53.72
78745;BME280;68064;53.100;8.824;2023-07-09T03:01:08;101954.34;;;18.54;53.33
78745;BME280;68064;53.100;8.824;2023-07-09T03:02:10;101953.41;;;18.51;53.52
78745;BME280;68064;53.100;8.824;2023-07-09T03:03:11;101955.03;;;18.48;53.55
78745;BME280;68064;53.100;8.824;2023-07-09T03:04:12;101962.78;;;18.47;53.47
78745;BME280;68064;53.100;8.824;2023-07-09T03:05:13;101959.31;;;18.46;53.61
78745;BME280;68064;53.100;8.824;2023-07-09T03:06:14;101963.53;;;18.44;53.71
78745;BME280;68064;53.100;8.824;2023-07-09T03:07:15;101963.47;;;18.41;53.43
78745;BME280;68064;53.100;8.824;2023-07-09T03:08:16;101960.03;;;18.42;53.66
78745;BME280;68064;53.100;8.824;2023-07-09T03:09:19;101960.03;;;18.42;53.57
78745;BME280;68064;53.100;8.824;2023-07-09T03:10:20;101959.06;;;18.39;53.40
78745;BME280;68064;53.100;8.824;2023-07-09T03:11:21;101961.66;;;18.39;53.58
78745;BME280;68064;53.100;8.824;2023-07-09T03:12:22;101959.03;;;18.37;53.68
78745;BME280;68064;53.100;8.824;2023-07-09T03:13:23;101959.88;;;18.36;53.53
78745;BME280;68064;53.100;8.824;2023-07-09T03:14:24;101952.88;;;18.34;53.45
78745;BME280;68064;53.100;8.824;2023-07-09T03:15:25;101960.66;;;18.34;53.83
78745;BME280;68064;53.100;8.824;2023-07-09T03:16:27;101945.91;;;18.31;53.80
78745;BME280;68064;53.100;8.824;2023-07-09T03:17:28;101951.03;;;18.30;53.64
78745;BME280;68064;53.100;8.824;2023-07-09T03:18:29;101952.72;;;18.29;53.71
78745;BME280;68064;53.100;8.824;2023-07-09T03:19:30;101957.91;;;18.29;53.62
78745;BME280;68064;53.100;8.824;2023-07-09T03:20:32;101967.41;;;18.29;53.83
78745;BME280;68064;53.100;8.824;2023-07-09T03:21:33;101963.91;;;18.27;53.73
78745;BME280;68064;53.100;8.824;2023-07-09T03:22:34;101965.59;;;18.26;54.08
78745;BME280;68064;53.100;8.824;2023-07-09T03:23:35;101963.00;;;18.25;53.94
78745;BME280;68064;53.100;8.824;2023-07-09T03:24:37;101975.81;;;18.20;53.65
78745;BME280;68064;53.100;8.824;2023-07-09T03:25:40;101974.91;;;18.20;53.94
78745;BME280;68064;53.100;8.824;2023-07-09T03:26:41;101976.59;;;18.18;53.90
78745;BME280;68064;53.100;8.824;2023-07-09T03:27:42;101974.00;;;18.18;54.13
78745;BME280;68064;53.100;8.824;2023-07-09T03:28:43;101971.34;;;18.16;54.13
78745;BME280;68064;53.100;8.824;2023-07-09T03:29:44;101969.63;;;18.15;54.02
78745;BME280;68064;53.100;8.824;2023-07-09T03:30:46;101964.38;;;18.14;53.94
78745;BME280;68064;53.100;8.824;2023-07-09T03:31:48;101968.66;;;18.13;53.87
78745;BME280;68064;53.100;8.824;2023-07-09T03:32:48;101969.53;;;18.12;54.24
78745;BME280;68064;53.100;8.824;2023-07-09T03:33:50;101972.09;;;18.12;54.07
78745;BME280;68064;53.100;8.824;2023-07-09T03:34:52;101972.88;;;18.10;53.97
78745;BME280;68064;53.100;8.824;2023-07-09T03:35:53;101972.78;;;18.07;54.17
78745;BME280;68064;53.100;8.824;2023-07-09T03:36:54;101964.09;;;18.05;54.22
78745;BME280;68064;53.100;8.824;2023-07-09T03:37:56;101973.56;;;18.04;54.17
78745;BME280;68064;53.100;8.824;2023-07-09T03:38:57;101975.25;;;18.02;54.31
78745;BME280;68064;53.100;8.824;2023-07-09T03:39:59;101977.78;;;18.01;54.40
78745;BME280;68064;53.100;8.824;2023-07-09T03:41:00;101975.16;;;17.99;54.28
78745;BME280;68064;53.100;8.824;2023-07-09T03:42:02;101977.69;;;17.97;54.40
78745;BME280;68064;53.100;8.824;2023-07-09T03:43:03;101978.50;;;17.96;54.50
78745;BME280;68064;53.100;8.824;2023-07-09T03:44:04;101972.41;;;17.94;54.48
78745;BME280;68064;53.100;8.824;2023-07-09T03:45:06;101981.84;;;17.92;54.77
78745;BME280;68064;53.100;8.824;2023-07-09T03:46:07;101974.91;;;17.91;54.45
78745;BME280;68064;53.100;8.824;2023-07-09T03:47:08;101981.00;;;17.93;54.88
78745;BME280;68064;53.100;8.824;2023-07-09T03:48:09;101980.16;;;17.93;54.53
78745;BME280;68064;53.100;8.824;2023-07-09T03:49:10;101983.50;;;17.90;54.49
78745;BME280;68064;53.100;8.824;2023-07-09T03:50:11;101984.34;;;17.89;54.51
78745;BME280;68064;53.100;8.824;2023-07-09T03:51:12;101988.66;;;17.89;54.63
78745;BME280;68064;53.100;8.824;2023-07-09T03:52:13;101989.53;;;17.89;54.79
78745;BME280;68064;53.100;8.824;2023-07-09T03:53:15;101985.16;;;17.88;54.69
78745;BME280;68064;53.100;8.824;2023-07-09T03:54:16;101979.09;;;17.88;54.53
78745;BME280;68064;53.100;8.824;2023-07-09T03:55:19;101983.41;;;17.87;54.79
78745;BME280;68064;53.100;8.824;2023-07-09T03:56:20;101989.47;;;17.88;54.55
78745;BME280;68064;53.100;8.824;2023-07-09T03:57:21;101981.66;;;17.86;54.68
78745;BME280;68064;53.100;8.824;2023-07-09T03:58:23;101984.19;;;17.85;54.71
78745;BME280;68064;53.100;8.824;2023-07-09T03:59:24;101985.88;;;17.83;54.64
78745;BME280;68064;53.100;8.824;2023-07-09T04:00:26;101983.22;;;17.81;54.74
78745;BME280;68064;53.100;8.824;2023-07-09T04:01:26;101984.06;;;17.80;54.87
78745;BME280;68064;53.100;8.824;2023-07-09T04:02:28;101992.69;;;17.81;54.77
78745;BME280;68064;53.100;8.824;2023-07-09T04:03:29;101991.06;;;17.83;54.67
78745;BME280;68064;53.100;8.824;2023-07-09T04:04:30;101989.25;;;17.80;54.70
78745;BME280;68064;53.100;8.824;2023-07-09T04:05:31;101986.53;;;17.77;54.92
78745;BME280;68064;53.100;8.824;2023-07-09T04:06:32;101993.44;;;17.77;54.71
78745;BME280;68064;53.100;8.824;2023-07-09T04:07:33;101992.50;;;17.75;55.52
78745;BME280;68064;53.100;8.824;2023-07-09T04:08:34;101991.56;;;17.73;54.68
78745;BME280;68064;53.100;8.824;2023-07-09T04:09:35;101987.31;;;17.75;54.93
78745;BME280;68064;53.100;8.824;2023-07-09T04:10:37;101995.16;;;17.76;54.76
78745;BME280;68064;53.100;8.824;2023-07-09T04:11:38;101995.19;;;17.78;54.81
78745;BME280;68064;53.100;8.824;2023-07-09T04:12:39;101986.50;;;17.76;54.79
78745;BME280;68064;53.100;8.824;2023-07-09T04:13:40;101988.16;;;17.74;54.94
78745;BME280;68064;53.100;8.824;2023-07-09T04:14:41;101998.47;;;17.72;54.82
78745;BME280;68064;53.100;8.824;2023-07-09T04:15:43;101998.53;;;17.74;54.81
78745;BME280;68064;53.100;8.824;2023-07-09T04:16:44;101995.94;;;17.74;54.77
78745;BME280;68064;53.100;8.824;2023-07-09T04:17:47;101995.88;;;17.72;54.66
78745;BME280;68064;53.100;8.824;2023-07-09T04:18:48;101993.28;;;17.72;54.77
78745;BME280;68064;53.100;8.824;2023-07-09T04:19:49;101995.09;;;17.75;54.61
78745;BME280;68064;53.100;8.824;2023-07-09T04:20:51;101994.28;;;17.76;54.86
78745;BME280;68064;53.100;8.824;2023-07-09T04:21:53;101995.09;;;17.75;54.98
78745;BME280;68064;53.100;8.824;2023-07-09T04:22:53;101996.84;;;17.76;54.81
78745;BME280;68064;53.100;8.824;2023-07-09T04:23:54;101989.97;;;17.76;55.02
78745;BME280;68064;53.100;8.824;2023-07-09T04:24:55;101990.84;;;17.77;54.85
78745;BME280;68064;53.100;8.824;2023-07-09T04:25:57;101989.19;;;17.79;55.07
78745;BME280;68064;53.100;8.824;2023-07-09T04:26:59;101983.91;;;17.76;54.66
78745;BME280;68064;53.100;8.824;2023-07-09T04:27:59;101987.38;;;17.76;55.05
78745;BME280;68064;53.100;8.824;2023-07-09T04:29:00;101983.13;;;17.78;54.87
78745;BME280;68064;53.100;8.824;2023-07-09T04:30:01;101992.59;;;17.78;54.61
78745;BME280;68064;53.100;8.824;2023-07-09T04:31:02;101988.28;;;17.78;55.01
78745;BME280;68064;53.100;8.824;2023-07-09T04:32:04;101985.69;;;17.77;54.90
78745;BME280;68064;53.100;8.824;2023-07-09T04:33:05;101995.16;;;17.76;55.29
78745;BME280;68064;53.100;8.824;2023-07-09T04:34:06;101993.38;;;17.75;55.10
78745;BME280;68064;53.100;8.824;2023-07-09T04:35:07;101995.16;;;17.76;55.22
78745;BME280;68064;53.100;8.824;2023-07-09T04:36:08;101990.75;;;17.74;56.55
78745;BME280;68064;53.100;8.824;2023-07-09T04:37:10;101993.28;;;17.72;55.05
78745;BME280;68064;53.100;8.824;2023-07-09T04:38:12;101991.50;;;17.71;54.92
78745;BME280;68064;53.100;8.824;2023-07-09T04:39:13;101990.69;;;17.72;54.99
78745;BME280;68064;53.100;8.824;2023-07-09T04:40:14;101987.22;;;17.72;54.99
78745;BME280;68064;53.100;8.824;2023-07-09T04:41:17;101983.81;;;17.73;54.83
78745;BME280;68064;53.100;8.824;2023-07-09T04:42:18;101988.09;;;17.72;55.07
78745;BME280;68064;53.100;8.824;2023-07-09T04:43:19;101991.69;;;17.76;55.05
78745;BME280;68064;53.100;8.824;2023-07-09T04:44:20;101983.09;;;17.77;54.98
78745;BME280;68064;53.100;8.824;2023-07-09T04:45:21;101987.41;;;17.78;55.16
78745;BME280;68064;53.100;8.824;2023-07-09T04:46:22;101984.81;;;17.78;54.96
78745;BME280;68064;53.100;8.824;2023-07-09T04:47:23;101977.94;;;17.78;54.89
78745;BME280;68064;53.100;8.824;2023-07-09T04:48:24;101982.22;;;17.78;54.92
78745;BME280;68064;53.100;8.824;2023-07-09T04:49:25;101984.06;;;17.80;54.84
78745;BME280;68064;53.100;8.824;2023-07-09T04:50:26;101974.56;;;17.81;54.76
78745;BME280;68064;53.100;8.824;2023-07-09T04:51:27;101980.59;;;17.80;54.70
78745;BME280;68064;53.100;8.824;2023-07-09T04:52:28;101978.88;;;17.80;54.67
78745;BME280;68064;53.100;8.824;2023-07-09T04:53:29;101977.22;;;17.82;54.77
78745;BME280;68064;53.100;8.824;2023-07-09T04:54:30;101982.31;;;17.81;54.22
78745;BME280;68064;53.100;8.824;2023-07-09T04:55:31;101981.41;;;17.79;54.30
78745;BME280;68064;53.100;8.824;2023-07-09T04:56:33;101979.84;;;17.84;54.49
78745;BME280;68064;53.100;8.824;2023-07-09T04:57:35;101989.38;;;17.85;54.72
78745;BME280;68064;53.100;8.824;2023-07-09T04:58:36;101980.72;;;17.84;54.08
78745;BME280;68064;53.100;8.824;2023-07-09T04:59:37;101979.84;;;17.84;54.38
78745;BME280;68064;53.100;8.824;2023-07-09T05:00:37;101981.59;;;17.85;54.33
78745;BME280;68064;53.100;8.824;2023-07-09T05:01:38;101983.31;;;17.84;54.15
78745;BME280;68064;53.100;8.824;2023-07-09T05:02:39;101985.16;;;17.88;60.96
78745;BME280;68064;53.100;8.824;2023-07-09T05:03:40;101991.16;;;17.86;56.53
78745;BME280;68064;53.100;8.824;2023-07-09T05:04:41;101983.38;;;17.86;54.78
78745;BME280;68064;53.100;8.824;2023-07-09T05:05:43;101988.59;;;17.87;54.34
78745;BME280;68064;53.100;8.824;2023-07-09T05:06:44;101992.06;;;17.88;54.05
78745;BME280;68064;53.100;8.824;2023-07-09T05:07:45;101984.28;;;17.88;53.85
78745;BME280;68064;53.100;8.824;2023-07-09T05:08:46;101980.00;;;17.88;53.68
78745;BME280;68064;53.100;8.824;2023-07-09T05:09:47;101981.78;;;17.91;53.54
78745;BME280;68064;53.100;8.824;2023-07-09T05:10:50;101980.09;;;17.91;53.44
78745;BME280;68064;53.100;8.824;2023-07-09T05:11:53;101975.78;;;17.92;53.37
78745;BME280;68064;53.100;8.824;2023-07-09T05:12:54;101980.19;;;17.94;53.77
78745;BME280;68064;53.100;8.824;2023-07-09T05:13:55;101981.06;;;17.95;54.79
78745;BME280;68064;53.100;8.824;2023-07-09T05:14:56;101975.09;;;17.97;56.47
78745;BME280;68064;53.100;8.824;2023-07-09T05:15:57;101976.81;;;17.97;55.95
78745;BME280;68064;53.100;8.824;2023-07-09T05:16:58;101976.03;;;18.00;58.61
78745;BME280;68064;53.100;8.824;2023-07-09T05:17:59;101978.56;;;17.98;54.68
78745;BME280;68064;53.100;8.824;2023-07-09T05:19:00;101972.50;;;17.97;55.51
78745;BME280;68064;53.100;8.824;2023-07-09T05:20:01;101975.97;;;17.98;54.34
78745;BME280;68064;53.100;8.824;2023-07-09T05:21:03;101968.13;;;17.96;55.26
78745;BME280;68064;53.100;8.824;2023-07-09T05:22:04;101967.31;;;17.97;54.33
78745;BME280;68064;53.100;8.824;2023-07-09T05:23:05;101964.81;;;18.01;61.43
78745;BME280;68064;53.100;8.824;2023-07-09T05:24:07;101968.28;;;18.01;56.10
78745;BME280;68064;53.100;8.824;2023-07-09T05:25:08;101976.97;;;18.03;54.80